Time;durP1;ratioP1;P1;durP2;ratioP2;P2;SDS_P1;SDS_P2;PMS_P1;PMS_P2;Temp;Humidity;BMP_temperature;BMP_pressure;BME280_temperature;BME280_humidity;BME280_pressure;Samples;Min_cycle;Max_cycle;Signal;HPM_P1;HPM_P2
2021/09/20 00:00:45;;;;;;;4.82;2.85;;;13.60;76.10;;;;;;2040974;29;20051;-92
2021/09/20 00:02:04;;;;;;;4.78;3.08;;;13.60;76.10;;;;;;2027119;29;20045;-93
2021/09/20 00:03:24;;;;;;;4.35;2.80;;;13.60;75.90;;;;;;2031944;29;20021;-91
2021/09/20 00:04:43;;;;;;;4.57;2.85;;;13.50;75.90;;;;;;2027760;29;20048;-92
2021/09/20 00:06:02;;;;;;;4.60;2.80;;;13.50;75.90;;;;;;2029470;29;20044;-92
2021/09/20 00:07:21;;;;;;;3.63;2.53;;;13.50;75.90;;;;;;2021230;29;20053;-93
2021/09/20 00:08:41;;;;;;;5.60;3.30;;;13.50;75.90;;;;;;2013417;29;20065;-92
2021/09/20 00:10:00;;;;;;;4.57;3.10;;;13.50;75.80;;;;;;2013084;29;20520;-93
2021/09/20 00:11:19;;;;;;;5.03;3.10;;;13.50;75.80;;;;;;2017426;29;20053;-93
2021/09/20 00:12:42;;;;;;;4.78;3.00;;;13.50;75.80;;;;;;2015263;29;20048;-92
2021/09/20 00:14:01;;;;;;;6.32;3.45;;;13.40;75.80;;;;;;2020025;29;20061;-93
2021/09/20 00:15:21;;;;;;;4.85;3.38;;;13.50;75.80;;;;;;2023536;29;20127;-92
2021/09/20 00:16:40;;;;;;;5.53;3.23;;;13.40;75.70;;;;;;2020978;29;20045;-92
2021/09/20 00:18:00;;;;;;;5.60;3.42;;;13.40;75.80;;;;;;2020573;29;20640;-92
2021/09/20 00:19:19;;;;;;;5.43;3.55;;;13.40;75.80;;;;;;2012298;29;20049;-92
2021/09/20 00:20:38;;;;;;;4.55;3.03;;;13.30;75.80;;;;;;2019028;29;20432;-92
2021/09/20 00:21:58;;;;;;;4.50;2.90;;;13.40;75.90;;;;;;2012742;29;20049;-91
2021/09/20 00:23:18;;;;;;;7.43;3.70;;;13.30;75.80;;;;;;2030843;29;20036;-94
2021/09/20 00:24:38;;;;;;;4.15;2.72;;;13.30;75.80;;;;;;2016950;29;20054;-93
2021/09/20 00:25:58;;;;;;;6.63;3.47;;;13.30;75.90;;;;;;2022479;29;20040;-93
2021/09/20 00:27:18;;;;;;;4.50;3.13;;;13.30;75.90;;;;;;2015601;29;20531;-92
2021/09/20 00:28:37;;;;;;;5.15;3.15;;;13.30;76.00;;;;;;2025064;29;20510;-93
2021/09/20 00:29:57;;;;;;;5.25;2.83;;;13.20;75.90;;;;;;2013417;29;20436;-92
2021/09/20 00:31:17;;;;;;;4.78;3.00;;;13.20;76.00;;;;;;2010235;29;20045;-93
2021/09/20 00:32:36;;;;;;;4.93;2.83;;;13.20;76.20;;;;;;2001662;29;20042;-92
2021/09/20 00:33:56;;;;;;;5.00;3.00;;;13.20;76.20;;;;;;2019066;29;20148;-92
2021/09/20 00:35:16;;;;;;;4.25;2.90;;;13.20;76.30;;;;;;2011863;29;20041;-93
2021/09/20 00:36:35;;;;;;;4.15;2.50;;;13.20;76.40;;;;;;2018053;29;20045;-92
2021/09/20 00:37:54;;;;;;;4.53;3.20;;;13.10;76.50;;;;;;1998445;29;20126;-92
2021/09/20 00:39:13;;;;;;;4.28;2.80;;;13.10;76.50;;;;;;2004252;29;20698;-92
2021/09/20 00:40:33;;;;;;;3.88;2.67;;;13.10;76.60;;;;;;2002796;29;20046;-92
2021/09/20 00:41:52;;;;;;;4.90;3.00;;;13.10;76.70;;;;;;2014878;29;20049;-92
2021/09/20 00:43:11;;;;;;;4.25;2.60;;;13.10;76.80;;;;;;2005606;29;20050;-92
2021/09/20 00:44:31;;;;;;;4.90;3.08;;;13.10;76.90;;;;;;2019710;29;20041;-92
2021/09/20 00:45:51;;;;;;;4.45;2.70;;;13.10;77.00;;;;;;2008137;29;20034;-92
2021/09/20 00:47:10;;;;;;;4.00;2.70;;;13.00;77.00;;;;;;2027701;29;20044;-92
2021/09/20 00:48:30;;;;;;;4.25;2.67;;;13.00;77.10;;;;;;2022343;29;20040;-92
2021/09/20 00:49:49;;;;;;;4.25;2.95;;;13.00;77.20;;;;;;2005883;29;20038;-92
2021/09/20 00:51:09;;;;;;;4.13;2.80;;;13.00;77.30;;;;;;1990416;29;20490;-93
2021/09/20 00:52:28;;;;;;;4.72;3.10;;;13.00;77.40;;;;;;2001796;29;20038;-91
2021/09/20 00:53:47;;;;;;;5.57;3.08;;;12.90;77.40;;;;;;1999767;29;20062;-91
2021/09/20 00:55:07;;;;;;;4.80;3.00;;;12.90;77.50;;;;;;1995806;29;20042;-93
2021/09/20 00:56:29;;;;;;;4.63;3.05;;;12.90;77.60;;;;;;2024385;29;20036;-91
2021/09/20 00:57:48;;;;;;;4.70;2.85;;;12.80;77.60;;;;;;2007431;29;20037;-92
2021/09/20 00:59:08;;;;;;;4.28;2.97;;;12.80;77.70;;;;;;2019874;29;20167;-92
2021/09/20 01:00:27;;;;;;;4.97;3.03;;;12.80;77.70;;;;;;2021792;29;20048;-93
2021/09/20 01:01:47;;;;;;;4.82;2.80;;;12.80;77.80;;;;;;2019203;29;20037;-92
2021/09/20 01:03:07;;;;;;;4.20;2.78;;;12.80;77.90;;;;;;2022116;29;20040;-91
2021/09/20 01:04:26;;;;;;;4.22;2.97;;;12.80;78.00;;;;;;2019397;29;20069;-92
2021/09/20 01:05:47;;;;;;;4.90;3.22;;;12.80;78.00;;;;;;2022915;29;20116;-92
2021/09/20 01:07:06;;;;;;;4.85;3.30;;;12.80;78.10;;;;;;2020036;29;20057;-92
2021/09/20 01:08:26;;;;;;;4.35;2.97;;;12.70;78.10;;;;;;2015247;29;20045;-92
2021/09/20 01:09:46;;;;;;;5.68;3.00;;;12.70;78.20;;;;;;2018418;29;20081;-92
2021/09/20 01:11:06;;;;;;;4.82;3.40;;;12.70;78.20;;;;;;2025805;29;20048;-92
2021/09/20 01:12:25;;;;;;;4.78;3.10;;;12.70;78.30;;;;;;2012053;29;20033;-92
2021/09/20 01:13:45;;;;;;;6.53;3.20;;;12.70;78.40;;;;;;2019586;29;20068;-92
2021/09/20 01:15:05;;;;;;;4.80;2.97;;;12.70;78.40;;;;;;2024810;29;20052;-91
2021/09/20 01:16:25;;;;;;;4.35;2.88;;;12.60;78.40;;;;;;2029335;29;20040;-92
2021/09/20 01:17:44;;;;;;;4.57;3.13;;;12.70;78.50;;;;;;2018617;29;20099;-92
2021/09/20 01:19:03;;;;;;;3.67;2.63;;;12.60;78.40;;;;;;2018530;29;20049;-92
2021/09/20 01:20:23;;;;;;;4.20;2.60;;;12.70;78.60;;;;;;2024098;29;20044;-92
2021/09/20 01:21:43;;;;;;;4.10;2.92;;;12.60;78.50;;;;;;2015144;29;20037;-92
2021/09/20 01:23:04;;;;;;;4.35;2.70;;;12.70;78.60;;;;;;2015064;29;20535;-92
2021/09/20 01:24:23;;;;;;;4.40;2.88;;;12.70;78.60;;;;;;2007699;29;20073;-92
2021/09/20 01:25:42;;;;;;;4.38;2.75;;;12.70;78.60;;;;;;2024913;29;20064;-92
2021/09/20 01:27:03;;;;;;;3.85;2.58;;;12.60;78.60;;;;;;2020399;29;20053;-92
2021/09/20 01:28:23;;;;;;;;;;;12.60;78.60;;;;;;2019185;29;20037;-92
2021/09/20 01:29:43;;;;;;;4.55;2.90;;;12.60;78.50;;;;;;2023141;29;19920;-92
2021/09/20 01:31:02;;;;;;;4.38;2.70;;;12.60;78.60;;;;;;2026398;29;20476;-92
2021/09/20 01:32:21;;;;;;;4.55;2.60;;;12.60;78.60;;;;;;2017320;29;20061;-93
2021/09/20 01:33:40;;;;;;;4.57;2.78;;;12.50;78.60;;;;;;2027408;29;20048;-92
2021/09/20 01:34:59;;;;;;;4.43;2.97;;;12.50;78.60;;;;;;2012938;29;20053;-92
2021/09/20 01:36:19;;;;;;;4.85;2.88;;;12.50;78.60;;;;;;2021878;29;20123;-92
2021/09/20 01:37:38;;;;;;;3.90;2.63;;;12.50;78.70;;;;;;2016274;29;20611;-91
2021/09/20 01:38:57;;;;;;;4.57;2.78;;;12.50;78.70;;;;;;2019980;29;20041;-92
2021/09/20 01:40:17;;;;;;;4.47;2.70;;;12.50;78.70;;;;;;2026729;29;20487;-92
2021/09/20 01:41:36;;;;;;;5.93;3.17;;;12.50;78.70;;;;;;2020616;29;20037;-92
2021/09/20 01:42:56;;;;;;;4.07;2.67;;;12.50;78.80;;;;;;2021767;29;20131;-92
2021/09/20 01:44:16;;;;;;;5.38;3.05;;;12.50;78.80;;;;;;2015688;29;20041;-92
2021/09/20 01:45:36;;;;;;;4.05;2.97;;;12.50;78.90;;;;;;2030477;29;20052;-92
2021/09/20 01:46:56;;;;;;;4.70;2.60;;;12.50;78.80;;;;;;2018474;29;20041;-92
2021/09/20 01:48:17;;;;;;;;;;;12.50;78.80;;;;;;2007307;29;20049;-91
2021/09/20 01:49:36;;;;;;;4.97;2.45;;;12.40;78.80;;;;;;2009046;29;19916;-91
2021/09/20 01:50:56;;;;;;;3.90;2.47;;;12.40;78.80;;;;;;2020113;29;20033;-92
2021/09/20 01:52:15;;;;;;;4.82;2.97;;;12.40;78.80;;;;;;2003018;29;20042;-92
2021/09/20 01:53:34;;;;;;;4.60;2.88;;;12.40;78.80;;;;;;2022422;29;20045;-92
2021/09/20 01:54:54;;;;;;;4.88;2.40;;;12.40;78.80;;;;;;2017491;29;20037;-92
2021/09/20 01:56:13;;;;;;;4.53;2.92;;;12.40;78.80;;;;;;2018895;29;20579;-92
2021/09/20 01:57:33;;;;;;;4.50;2.80;;;12.40;78.80;;;;;;2020062;29;20049;-93
2021/09/20 01:58:54;;;;;;;4.13;2.58;;;12.40;78.80;;;;;;2021818;29;20131;-92
2021/09/20 02:00:14;;;;;;;5.53;2.78;;;12.40;78.80;;;;;;2026848;29;20135;-92
2021/09/20 02:01:34;;;;;;;4.90;2.88;;;12.40;78.70;;;;;;2005019;29;20056;-92
2021/09/20 02:02:53;;;;;;;4.85;2.72;;;12.40;78.70;;;;;;2011802;29;20112;-93
2021/09/20 02:04:12;;;;;;;5.03;2.63;;;12.40;78.70;;;;;;2019330;29;20071;-92
2021/09/20 02:05:32;;;;;;;3.92;2.85;;;12.40;78.70;;;;;;2016847;29;20045;-92
2021/09/20 02:06:51;;;;;;;4.10;2.80;;;12.40;78.70;;;;;;2017549;29;20132;-92
2021/09/20 02:08:10;;;;;;;4.80;3.00;;;12.40;78.60;;;;;;2029359;29;20052;-92
2021/09/20 02:09:33;;;;;;;5.20;3.05;;;12.40;78.60;;;;;;2017770;29;20041;-92
2021/09/20 02:10:52;;;;;;;4.30;2.88;;;12.40;78.50;;;;;;2029484;29;20064;-92
2021/09/20 02:12:11;;;;;;;4.50;3.00;;;12.40;78.50;;;;;;2025853;29;20472;-92
2021/09/20 02:13:31;;;;;;;4.70;2.88;;;12.40;78.40;;;;;;2028951;29;20052;-92
2021/09/20 02:14:50;;;;;;;5.40;2.70;;;12.40;78.40;;;;;;2030778;29;20039;-93
2021/09/20 02:16:10;;;;;;;4.00;2.83;;;12.40;78.40;;;;;;2026173;29;20041;-92
2021/09/20 02:17:29;;;;;;;3.85;2.55;;;12.40;78.40;;;;;;2023768;29;20045;-92
2021/09/20 02:18:48;;;;;;;4.15;2.50;;;12.30;78.30;;;;;;2018753;29;20040;-92
2021/09/20 02:20:08;;;;;;;4.30;2.75;;;12.30;78.30;;;;;;2017321;29;20536;-92
2021/09/20 02:21:28;;;;;;;4.00;2.50;;;12.40;78.30;;;;;;2020385;29;20045;-93
2021/09/20 02:22:47;;;;;;;4.03;2.90;;;12.30;78.30;;;;;;2019511;29;20101;-92
2021/09/20 02:24:07;;;;;;;4.13;2.47;;;12.30;78.30;;;;;;2021487;29;20073;-92
2021/09/20 02:25:26;;;;;;;4.20;2.70;;;12.30;78.30;;;;;;2016398;29;20037;-91
2021/09/20 02:26:45;;;;;;;4.95;2.75;;;12.30;78.20;;;;;;2023666;29;20491;-91
2021/09/20 02:28:04;;;;;;;4.03;2.50;;;12.30;78.30;;;;;;2030567;29;20040;-91
2021/09/20 02:29:23;;;;;;;4.95;2.90;;;12.30;78.30;;;;;;2021089;29;20045;-91
2021/09/20 02:30:42;;;;;;;4.50;2.90;;;12.30;78.30;;;;;;2023457;29;20519;-91
2021/09/20 02:32:04;;;;;;;4.07;2.53;;;12.30;78.20;;;;;;2017562;29;20080;-91
2021/09/20 02:33:23;;;;;;;5.80;2.60;;;12.30;78.20;;;;;;2015445;29;20049;-91
2021/09/20 02:34:43;;;;;;;5.55;2.92;;;12.30;78.20;;;;;;2027594;29;20461;-92
2021/09/20 02:36:03;;;;;;;4.90;2.83;;;12.30;78.20;;;;;;2007115;29;20050;-91
2021/09/20 02:37:23;;;;;;;4.10;2.78;;;12.30;78.10;;;;;;2018099;29;20053;-91
2021/09/20 02:38:42;;;;;;;3.60;2.42;;;12.30;78.10;;;;;;2024428;29;20048;-92
2021/09/20 02:40:04;;;;;;;4.03;2.63;;;12.30;78.10;;;;;;2013744;29;20057;-91
2021/09/20 02:41:23;;;;;;;4.80;3.00;;;12.20;78.00;;;;;;2016054;29;20371;-92
2021/09/20 02:42:43;;;;;;;4.65;2.70;;;12.20;78.00;;;;;;2027892;29;20514;-93
2021/09/20 02:44:02;;;;;;;4.25;2.53;;;12.20;78.00;;;;;;2026988;29;20044;-92
2021/09/20 02:45:22;;;;;;;4.15;2.60;;;12.20;78.00;;;;;;2020079;29;20056;-92
2021/09/20 02:46:41;;;;;;;3.50;2.47;;;12.20;78.00;;;;;;2018804;29;20492;-92
2021/09/20 02:48:01;;;;;;;4.70;2.80;;;12.20;78.00;;;;;;2022440;29;20041;-93
2021/09/20 02:49:20;;;;;;;4.35;2.63;;;12.20;77.90;;;;;;2024225;29;20068;-92
2021/09/20 02:50:39;;;;;;;4.88;2.92;;;12.20;77.90;;;;;;2012662;29;20054;-92
2021/09/20 02:51:58;;;;;;;3.72;2.42;;;12.20;77.90;;;;;;2018834;29;20037;-91
2021/09/20 02:53:18;;;;;;;4.95;3.08;;;12.20;77.90;;;;;;2026373;29;20080;-92
2021/09/20 02:54:37;;;;;;;4.10;2.78;;;12.20;77.80;;;;;;2014997;29;20045;-92
2021/09/20 02:55:56;;;;;;;4.75;2.80;;;12.20;77.80;;;;;;2024093;29;20044;-91
2021/09/20 02:57:16;;;;;;;4.40;2.60;;;12.20;77.80;;;;;;2034809;29;20048;-92
2021/09/20 02:58:35;;;;;;;3.08;2.17;;;12.20;77.80;;;;;;2038255;29;20533;-92
2021/09/20 02:59:54;;;;;;;4.15;2.50;;;12.20;77.90;;;;;;2026048;29;20037;-91
2021/09/20 03:01:14;;;;;;;3.70;2.45;;;12.20;77.80;;;;;;2020628;29;20049;-92
2021/09/20 03:02:33;;;;;;;3.85;2.47;;;12.20;77.90;;;;;;2028978;29;20040;-92
2021/09/20 03:03:52;;;;;;;4.22;2.33;;;12.20;77.90;;;;;;2013657;29;20053;-92
2021/09/20 03:05:11;;;;;;;4.15;2.50;;;12.20;77.80;;;;;;2028341;29;20048;-92
2021/09/20 03:06:31;;;;;;;4.13;2.60;;;12.20;77.80;;;;;;2024702;29;20052;-92
2021/09/20 03:07:50;;;;;;;3.67;2.47;;;12.20;77.80;;;;;;2018790;29;20049;-91
2021/09/20 03:09:09;;;;;;;3.97;2.50;;;12.20;77.80;;;;;;2029207;29;20083;-92
2021/09/20 03:10:29;;;;;;;4.15;2.50;;;12.10;77.70;;;;;;2026543;29;20032;-92
2021/09/20 03:11:48;;;;;;;4.63;2.53;;;12.10;77.70;;;;;;2019476;29;20120;-91
2021/09/20 03:13:07;;;;;;;3.90;2.40;;;12.10;77.80;;;;;;2022873;29;20041;-93
2021/09/20 03:14:27;;;;;;;4.57;2.75;;;12.10;77.70;;;;;;2031825;29;20036;-92
2021/09/20 03:15:46;;;;;;;4.40;2.80;;;12.10;77.70;;;;;;2029682;29;20048;-93
2021/09/20 03:17:05;;;;;;;3.63;2.28;;;12.10;77.80;;;;;;2037977;29;20053;-92
2021/09/20 03:18:25;;;;;;;3.90;2.20;;;12.10;77.80;;;;;;2026614;29;20042;-91
2021/09/20 03:19:46;;;;;;;4.57;2.58;;;12.10;77.80;;;;;;2020196;29;20026;-90
2021/09/20 03:21:05;;;;;;;3.75;2.00;;;12.10;77.80;;;;;;2026022;29;20072;-92
2021/09/20 03:22:25;;;;;;;4.15;2.55;;;12.10;77.80;;;;;;2025268;29;20018;-90
2021/09/20 03:23:46;;;;;;;3.10;2.13;;;12.10;77.80;;;;;;2038799;29;20021;-92
2021/09/20 03:25:07;;;;;;;3.15;2.00;;;12.10;77.80;;;;;;2030174;29;20037;-92
2021/09/20 03:26:26;;;;;;;3.33;2.30;;;12.10;77.80;;;;;;2041782;29;20028;-89
2021/09/20 03:27:45;;;;;;;3.47;2.40;;;12.10;77.80;;;;;;2031064;29;20081;-91
2021/09/20 03:29:05;;;;;;;4.10;2.55;;;12.00;77.80;;;;;;2019840;29;20046;-92
2021/09/20 03:30:25;;;;;;;3.03;2.10;;;12.00;77.80;;;;;;2025337;29;20045;-92
2021/09/20 03:31:44;;;;;;;4.40;2.38;;;12.00;77.80;;;;;;2028829;29;20273;-92
2021/09/20 03:33:03;;;;;;;3.33;1.88;;;12.00;77.80;;;;;;2020741;29;20069;-92
2021/09/20 03:34:23;;;;;;;4.05;2.38;;;12.00;77.90;;;;;;2018821;29;20057;-92
2021/09/20 03:35:42;;;;;;;3.60;2.20;;;12.00;77.90;;;;;;2012911;29;20113;-92
2021/09/20 03:37:01;;;;;;;3.75;2.35;;;12.00;77.90;;;;;;2029524;29;20072;-92
2021/09/20 03:38:21;;;;;;;3.97;2.38;;;12.00;77.90;;;;;;2020956;29;20033;-92
2021/09/20 03:39:40;;;;;;;3.35;2.15;;;12.00;77.90;;;;;;2028636;29;20041;-91
2021/09/20 03:40:59;;;;;;;5.28;2.40;;;12.00;78.00;;;;;;2026710;29;20033;-91
2021/09/20 03:42:18;;;;;;;4.28;2.47;;;12.00;78.00;;;;;;2016839;29;20057;-91
2021/09/20 03:43:38;;;;;;;4.60;2.50;;;12.00;78.00;;;;;;2026743;29;20045;-91
2021/09/20 03:44:57;;;;;;;3.53;2.38;;;12.00;78.00;;;;;;2031040;29;20026;-91
2021/09/20 03:46:17;;;;;;;4.63;2.70;;;12.00;78.00;;;;;;2027960;29;20055;-91
2021/09/20 03:47:37;;;;;;;4.30;2.58;;;11.90;78.00;;;;;;2030319;29;20045;-92
2021/09/20 03:48:57;;;;;;;3.50;2.40;;;12.00;78.10;;;;;;2036140;29;20041;-92
2021/09/20 03:50:16;;;;;;;4.07;2.58;;;12.00;78.10;;;;;;2025056;29;20053;-92
2021/09/20 03:51:36;;;;;;;3.55;2.55;;;12.00;78.10;;;;;;2023353;29;20036;-92
2021/09/20 03:52:55;;;;;;;4.25;2.78;;;11.90;78.10;;;;;;2026534;29;20041;-92
2021/09/20 03:54:14;;;;;;;4.22;2.80;;;11.90;78.10;;;;;;2016989;29;20045;-91
2021/09/20 03:55:33;;;;;;;4.15;2.70;;;11.90;78.20;;;;;;2038568;29;20044;-91
2021/09/20 03:56:53;;;;;;;4.97;2.90;;;11.90;78.10;;;;;;2025992;29;20037;-91
2021/09/20 03:58:12;;;;;;;4.60;2.80;;;11.90;78.10;;;;;;2026728;29;20036;-92
2021/09/20 03:59:31;;;;;;;4.15;2.67;;;11.90;78.20;;;;;;2026391;29;20119;-92
2021/09/20 04:00:52;;;;;;;4.82;2.92;;;11.90;78.20;;;;;;2025495;29;20040;-92
2021/09/20 04:02:12;;;;;;;4.18;2.70;;;11.90;78.30;;;;;;2021236;29;20036;-91
2021/09/20 04:03:31;;;;;;;4.63;2.70;;;11.90;78.30;;;;;;2010994;29;20045;-92
2021/09/20 04:04:51;;;;;;;4.50;2.78;;;11.90;78.30;;;;;;2019259;29;20815;-92
2021/09/20 04:06:10;;;;;;;4.15;2.70;;;11.80;78.30;;;;;;2013712;29;20061;-92
2021/09/20 04:07:29;;;;;;;3.75;2.53;;;11.80;78.40;;;;;;2017148;29;20089;-91
2021/09/20 04:08:49;;;;;;;5.00;2.80;;;11.80;78.40;;;;;;2023690;29;20037;-92
2021/09/20 04:10:10;;;;;;;4.88;2.63;;;11.80;78.40;;;;;;2020175;29;20464;-92
2021/09/20 04:11:29;;;;;;;4.40;2.83;;;11.80;78.40;;;;;;2023770;29;20138;-92
2021/09/20 04:12:49;;;;;;;4.38;2.85;;;11.80;78.40;;;;;;2021644;29;20037;-92
2021/09/20 04:14:08;;;;;;;4.10;2.50;;;11.80;78.40;;;;;;2030676;29;20048;-92
2021/09/20 04:15:27;;;;;;;4.18;2.50;;;11.80;78.40;;;;;;2025568;29;20040;-92
2021/09/20 04:16:47;;;;;;;4.35;2.42;;;11.80;78.40;;;;;;2023314;29;20528;-92
2021/09/20 04:18:07;;;;;;;4.07;2.65;;;11.80;78.40;;;;;;2010984;29;20125;-92
2021/09/20 04:19:26;;;;;;;3.90;2.58;;;11.80;78.40;;;;;;2016013;29;20122;-91
2021/09/20 04:20:45;;;;;;;5.18;3.05;;;11.80;78.40;;;;;;2014986;29;20041;-93
2021/09/20 04:22:05;;;;;;;5.32;3.10;;;11.80;78.40;;;;;;2008099;29;20440;-93
2021/09/20 04:23:25;;;;;;;4.70;2.80;;;11.70;78.40;;;;;;2015113;29;20041;-93
2021/09/20 04:24:44;;;;;;;4.45;2.75;;;11.80;78.40;;;;;;2016432;29;20053;-92
2021/09/20 04:26:04;;;;;;;4.57;3.00;;;11.70;78.40;;;;;;2018784;29;20048;-91
2021/09/20 04:27:23;;;;;;;4.63;2.95;;;11.70;78.40;;;;;;2021887;29;20074;-92
2021/09/20 04:28:42;;;;;;;4.53;2.88;;;11.70;78.40;;;;;;2022753;29;20048;-93
2021/09/20 04:30:02;;;;;;;4.13;2.78;;;11.70;78.40;;;;;;2034014;29;20048;-92
2021/09/20 04:31:21;;;;;;;4.60;2.90;;;11.70;78.40;;;;;;2019817;29;20036;-92
2021/09/20 04:32:41;;;;;;;4.93;2.90;;;11.70;78.40;;;;;;2022301;29;20045;-92
2021/09/20 04:34:00;;;;;;;4.60;3.08;;;11.70;78.40;;;;;;2013458;29;20139;-92
2021/09/20 04:35:19;;;;;;;3.92;2.58;;;11.70;78.40;;;;;;2028038;29;20048;-92
2021/09/20 04:36:39;;;;;;;5.40;2.88;;;11.70;78.40;;;;;;2029115;29;20036;-91
2021/09/20 04:37:58;;;;;;;4.78;2.95;;;11.70;78.40;;;;;;2017451;29;20041;-93
2021/09/20 04:39:17;;;;;;;5.18;2.95;;;11.70;78.40;;;;;;2021525;29;20041;-92
2021/09/20 04:40:37;;;;;;;5.32;3.17;;;11.70;78.40;;;;;;2010104;29;20088;-91
2021/09/20 04:41:57;;;;;;;4.80;2.80;;;11.70;78.40;;;;;;2025129;29;20032;-91
2021/09/20 04:43:18;;;;;;;5.10;3.15;;;11.70;78.40;;;;;;2021999;29;20107;-92
2021/09/20 04:44:37;;;;;;;;;;;11.70;78.40;;;;;;2024548;29;20067;-93
2021/09/20 04:45:57;;;;;;;5.15;2.90;;;11.70;78.40;;;;;;2023183;29;19911;-93
2021/09/20 04:47:16;;;;;;;4.50;3.08;;;11.70;78.40;;;;;;2015407;29;20136;-94
2021/09/20 04:48:35;;;;;;;5.50;3.30;;;11.70;78.40;;;;;;2019924;29;20044;-92
2021/09/20 04:49:55;;;;;;;4.75;2.90;;;11.70;78.50;;;;;;2014099;29;20033;-92
2021/09/20 04:51:14;;;;;;;4.85;3.22;;;11.60;78.40;;;;;;2023691;29;20108;-94
2021/09/20 04:52:33;;;;;;;4.20;2.92;;;11.60;78.50;;;;;;2019605;29;20053;-92
2021/09/20 04:53:52;;;;;;;5.15;3.10;;;11.60;78.50;;;;;;2010921;29;20543;-92
2021/09/20 04:55:12;;;;;;;5.97;3.63;;;11.60;78.60;;;;;;2021434;29;20040;-93
2021/09/20 04:56:31;;;;;;;5.03;3.03;;;11.60;78.60;;;;;;2027038;29;20511;-90
2021/09/20 04:57:50;;;;;;;5.13;3.22;;;11.60;78.60;;;;;;2004070;29;20069;-91
2021/09/20 04:59:09;;;;;;;4.55;2.88;;;11.60;78.70;;;;;;2021247;29;20123;-89
2021/09/20 05:00:29;;;;;;;4.80;3.00;;;11.60;78.70;;;;;;2022448;29;20044;-91
2021/09/20 05:01:48;;;;;;;5.22;3.30;;;11.60;78.70;;;;;;2022063;29;20060;-91
2021/09/20 05:03:07;;;;;;;5.70;3.42;;;11.60;79.30;;;;;;2015270;29;20029;-90
2021/09/20 05:04:27;;;;;;;4.75;3.00;;;11.60;78.70;;;;;;2012547;29;20045;-91
2021/09/20 05:05:46;;;;;;;4.90;3.22;;;11.60;78.80;;;;;;2019395;29;20068;-91
2021/09/20 05:07:06;;;;;;;5.07;3.35;;;11.60;78.80;;;;;;2017856;29;20060;-90
2021/09/20 05:08:25;;;;;;;4.63;3.10;;;11.60;78.80;;;;;;2016074;29;20055;-90
2021/09/20 05:09:45;;;;;;;6.22;3.60;;;11.60;78.90;;;;;;2013272;29;20508;-91
2021/09/20 05:11:04;;;;;;;4.53;3.00;;;11.60;79.00;;;;;;2006065;29;20069;-90
2021/09/20 05:12:23;;;;;;;5.68;3.20;;;11.60;79.00;;;;;;2020509;29;20076;-90
2021/09/20 05:13:42;;;;;;;7.38;3.60;;;11.60;79.10;;;;;;2022854;29;20048;-90
2021/09/20 05:15:02;;;;;;;5.82;3.85;;;11.60;79.20;;;;;;2015727;29;20531;-90
2021/09/20 05:16:22;;;;;;;6.07;3.45;;;11.50;79.20;;;;;;2027996;29;20036;-90
2021/09/20 05:17:45;;;;;;;4.97;3.20;;;11.50;79.20;;;;;;2009693;29;20062;-90
2021/09/20 05:19:04;;;;;;;4.72;3.05;;;11.50;79.30;;;;;;2018879;29;20495;-90
2021/09/20 05:20:23;;;;;;;5.68;3.38;;;11.50;79.40;;;;;;2018174;29;20045;-90
2021/09/20 05:21:43;;;;;;;4.90;3.28;;;11.50;79.40;;;;;;2023440;29;20041;-90
2021/09/20 05:23:02;;;;;;;6.05;3.75;;;11.50;79.50;;;;;;2018329;29;20045;-90
2021/09/20 05:24:21;;;;;;;5.75;3.70;;;11.50;79.50;;;;;;2018943;29;20511;-90
2021/09/20 05:25:40;;;;;;;6.00;3.58;;;11.50;79.50;;;;;;2011525;29;20043;-90
2021/09/20 05:27:00;;;;;;;5.55;3.75;;;11.50;79.60;;;;;;2016075;29;20041;-91
2021/09/20 05:28:19;;;;;;;5.65;3.45;;;11.40;79.60;;;;;;2025951;29;20044;-90
2021/09/20 05:29:38;;;;;;;6.50;3.55;;;11.50;79.70;;;;;;2029858;29;20072;-90
2021/09/20 05:30:58;;;;;;;6.38;4.22;;;11.40;79.80;;;;;;2021656;29;20416;-90
2021/09/20 05:32:17;;;;;;;6.50;4.15;;;11.40;79.80;;;;;;2019126;29;20041;-90
2021/09/20 05:33:37;;;;;;;5.30;3.60;;;11.40;79.80;;;;;;2010658;29;20077;-90
2021/09/20 05:34:56;;;;;;;5.47;3.63;;;11.40;79.90;;;;;;2010782;29;20053;-90
2021/09/20 05:36:15;;;;;;;5.32;3.58;;;11.40;80.00;;;;;;2018542;29;20034;-91
2021/09/20 05:37:34;;;;;;;5.22;3.45;;;11.50;80.00;;;;;;2017229;29;20045;-90
2021/09/20 05:38:53;;;;;;;4.90;3.22;;;11.40;79.90;;;;;;2022874;29;20123;-90
2021/09/20 05:40:14;;;;;;;6.05;3.38;;;11.40;80.00;;;;;;2014558;29;20045;-90
2021/09/20 05:41:33;;;;;;;5.65;3.70;;;11.40;80.10;;;;;;2007544;29;20038;-90
2021/09/20 05:43:01;;;;;;;5.78;3.63;;;11.40;80.10;;;;;;2027868;29;20095;-91
2021/09/20 05:44:20;;;;;;;5.28;3.50;;;11.50;80.10;;;;;;2018645;29;20041;-90
2021/09/20 05:45:40;;;;;;;6.57;4.18;;;11.50;80.20;;;;;;2026165;29;20040;-91
2021/09/20 05:46:59;;;;;;;6.03;3.75;;;11.50;80.10;;;;;;2026463;29;20033;-90
2021/09/20 05:48:20;;;;;;;5.63;3.80;;;11.40;80.10;;;;;;2028194;29;20439;-88
2021/09/20 05:49:39;;;;;;;;;;;11.50;80.10;;;;;;2009482;29;20037;-88
2021/09/20 05:50:59;;;;;;;6.05;3.80;;;11.40;80.10;;;;;;2026505;29;19927;-87
2021/09/20 05:52:19;;;;;;;6.03;3.90;;;11.50;80.10;;;;;;2021265;29;20135;-87
2021/09/20 05:53:38;;;;;;;5.88;3.72;;;11.50;80.10;;;;;;2021500;29;20045;-86
2021/09/20 05:54:58;;;;;;;5.03;3.10;;;11.50;80.10;;;;;;2019386;29;20049;-89
2021/09/20 05:56:17;;;;;;;5.70;3.72;;;11.50;80.20;;;;;;2007334;29;20460;-89
2021/09/20 05:57:36;;;;;;;5.20;3.40;;;11.50;80.20;;;;;;2017306;29;20539;-91
2021/09/20 05:58:56;;;;;;;5.35;3.65;;;11.50;80.20;;;;;;2026499;29;20040;-90
2021/09/20 06:00:16;;;;;;;5.38;3.20;;;11.50;80.20;;;;;;2032802;29;20052;-88
2021/09/20 06:01:35;;;;;;;5.55;3.65;;;11.50;80.20;;;;;;2014517;29;20735;-88
2021/09/20 06:02:54;;;;;;;5.30;3.20;;;11.60;80.20;;;;;;2017817;29;20048;-89
2021/09/20 06:04:14;;;;;;;4.85;3.45;;;11.60;80.10;;;;;;2019839;29;20460;-89
2021/09/20 06:05:37;;;;;;;5.53;3.42;;;11.60;80.10;;;;;;2018881;29;20803;-89
2021/09/20 06:06:57;;;;;;;4.75;3.20;;;11.70;80.10;;;;;;2014223;29;20041;-88
2021/09/20 06:08:17;;;;;;;5.25;3.50;;;11.70;80.10;;;;;;2017763;29;20499;-88
2021/09/20 06:09:36;;;;;;;5.25;3.00;;;11.70;80.00;;;;;;2025590;29;20037;-88
2021/09/20 06:10:55;;;;;;;5.60;3.35;;;11.80;80.00;;;;;;2018111;29;20049;-88
2021/09/20 06:12:14;;;;;;;5.55;3.40;;;11.80;80.00;;;;;;2018324;29;20041;-89
2021/09/20 06:13:33;;;;;;;5.25;3.22;;;11.80;79.90;;;;;;2028657;29;20037;-89
2021/09/20 06:14:53;;;;;;;4.63;3.03;;;11.80;79.90;;;;;;2018289;29;20045;-88
2021/09/20 06:16:13;;;;;;;5.72;3.33;;;11.80;79.80;;;;;;2028493;29;20033;-88
2021/09/20 06:17:32;;;;;;;4.88;3.22;;;11.80;79.80;;;;;;2025966;29;20084;-88
2021/09/20 06:18:52;;;;;;;4.82;3.38;;;11.80;79.90;;;;;;2016215;29;20053;-88
2021/09/20 06:20:12;;;;;;;5.30;3.20;;;11.80;79.80;;;;;;2017718;29;20044;-88
2021/09/20 06:21:31;;;;;;;5.13;3.40;;;11.90;79.80;;;;;;2024365;29;20033;-88
2021/09/20 06:22:51;;;;;;;4.50;3.13;;;11.90;79.70;;;;;;2027876;29;20406;-88
2021/09/20 06:24:10;;;;;;;5.35;3.58;;;11.90;79.60;;;;;;2018588;29;20041;-88
2021/09/20 06:25:30;;;;;;;5.97;3.95;;;12.00;79.70;;;;;;2026871;29;20104;-88
2021/09/20 06:26:49;;;;;;;6.20;3.83;;;12.00;79.60;;;;;;2015045;29;20045;-88
2021/09/20 06:28:08;;;;;;;6.70;3.95;;;12.00;79.50;;;;;;2005402;29;20050;-88
2021/09/20 06:29:27;;;;;;;5.53;3.63;;;12.00;79.40;;;;;;2025251;29;20044;-89
2021/09/20 06:30:47;;;;;;;5.35;3.70;;;12.10;79.30;;;;;;2014018;29;20049;-88
2021/09/20 06:32:06;;;;;;;6.00;3.53;;;12.10;79.20;;;;;;2021032;29;20045;-88
2021/09/20 06:33:25;;;;;;;6.28;3.97;;;12.10;79.10;;;;;;2019502;29;20049;-88
2021/09/20 06:34:44;;;;;;;5.22;3.60;;;12.10;79.00;;;;;;2025339;29;20507;-88
2021/09/20 06:36:04;;;;;;;6.00;3.97;;;12.10;78.80;;;;;;2025105;29;20052;-89
2021/09/20 06:37:23;;;;;;;6.00;4.18;;;12.20;78.70;;;;;;2028349;29;20072;-89
2021/09/20 06:38:43;;;;;;;5.65;3.65;;;12.20;78.60;;;;;;2017476;29;20045;-88
2021/09/20 06:40:03;;;;;;;5.88;4.03;;;12.20;78.50;;;;;;2022050;29;20048;-87
2021/09/20 06:41:23;;;;;;;;;;;12.20;78.40;;;;;;2022784;29;20040;-87
2021/09/20 06:42:43;;;;;;;5.90;3.97;;;12.30;78.40;;;;;;2027842;29;19915;-87
2021/09/20 06:44:03;;;;;;;6.47;4.30;;;12.30;78.90;;;;;;2010573;29;20057;-88
2021/09/20 06:45:23;;;;;;;5.82;3.88;;;12.30;78.20;;;;;;2020208;29;20511;-88
2021/09/20 06:46:42;;;;;;;6.38;4.00;;;12.30;78.00;;;;;;2027012;29;20056;-87
2021/09/20 06:48:01;;;;;;;7.03;4.70;;;12.40;77.90;;;;;;2022181;29;20044;-87
2021/09/20 06:49:22;;;;;;;6.57;4.60;;;12.40;77.70;;;;;;2021377;29;20508;-87
2021/09/20 06:50:41;;;;;;;5.68;4.20;;;12.40;77.40;;;;;;2024571;29;20707;-87
2021/09/20 06:52:00;;;;;;;6.63;4.65;;;12.40;77.30;;;;;;2019633;29;20061;-88
2021/09/20 06:53:20;;;;;;;6.47;4.43;;;12.50;77.10;;;;;;2015914;29;20033;-88
2021/09/20 06:54:39;;;;;;;6.57;4.40;;;12.50;77.00;;;;;;2008339;29;20046;-87